sensor_id;sensor_type;location;lat;lon;timestamp;pressure;altitude;pressure_sealevel;temperature;humidity
1926;BME280;964;42.606;23.588;2023-02-22T00:00:11;94505.47;;;28.02;19.43
1926;BME280;964;42.606;23.588;2023-02-22T00:02:45;94496.22;;;28.33;19.03
1926;BME280;964;42.606;23.588;2023-02-22T00:05:13;94493.13;;;28.63;18.86
1926;BME280;964;42.606;23.588;2023-02-22T00:07:43;94499.53;;;28.13;19.31
1926;BME280;964;42.606;23.588;2023-02-22T00:10:10;94496.13;;;28.65;18.90
1926;BME280;964;42.606;23.588;2023-02-22T00:12:39;94496.09;;;28.27;18.86
1926;BME280;964;42.606;23.588;2023-02-22T00:15:06;94502.53;;;28.39;18.96
1926;BME280;964;42.606;23.588;2023-02-22T00:17:33;94498.38;;;28.52;18.71
1926;BME280;964;42.606;23.588;2023-02-22T00:20:01;94500.56;;;28.63;18.54
1926;BME280;964;42.606;23.588;2023-02-22T00:22:29;94504.69;;;28.58;18.65
1926;BME280;964;42.606;23.588;2023-02-22T00:24:57;94509.69;;;27.80;19.56
1926;BME280;964;42.606;23.588;2023-02-22T00:27:24;94502.13;;;28.55;18.78
1926;BME280;964;42.606;23.588;2023-02-22T00:29:50;94497.34;;;28.26;18.83
1926;BME280;964;42.606;23.588;2023-02-22T00:32:17;94493.78;;;28.35;18.94
1926;BME280;964;42.606;23.588;2023-02-22T00:34:44;94493.06;;;28.34;18.63
1926;BME280;964;42.606;23.588;2023-02-22T00:37:12;94489.34;;;28.85;18.58
1926;BME280;964;42.606;23.588;2023-02-22T00:39:38;94488.31;;;28.97;18.21
1926;BME280;964;42.606;23.588;2023-02-22T00:42:06;94493.78;;;28.58;19.14
1926;BME280;964;42.606;23.588;2023-02-22T00:44:33;94483.59;;;28.97;18.75
1926;BME280;964;42.606;23.588;2023-02-22T00:47:00;94484.00;;;29.05;18.52
1926;BME280;964;42.606;23.588;2023-02-22T00:49:29;94481.44;;;28.87;18.68
1926;BME280;964;42.606;23.588;2023-02-22T00:51:55;94477.56;;;28.79;18.62
1926;BME280;964;42.606;23.588;2023-02-22T00:54:22;94479.38;;;28.82;18.58
1926;BME280;964;42.606;23.588;2023-02-22T00:56:49;94488.50;;;28.93;18.30
1926;BME280;964;42.606;23.588;2023-02-22T00:59:18;94474.75;;;28.88;18.55
1926;BME280;964;42.606;23.588;2023-02-22T01:01:44;94478.75;;;28.63;18.69
1926;BME280;964;42.606;23.588;2023-02-22T01:04:11;94477.00;;;28.51;18.74
1926;BME280;964;42.606;23.588;2023-02-22T01:06:38;94470.84;;;28.27;19.33
1926;BME280;964;42.606;23.588;2023-02-22T01:09:04;94470.53;;;28.01;19.59
1926;BME280;964;42.606;23.588;2023-02-22T01:11:32;94473.09;;;27.95;19.22
1926;BME280;964;42.606;23.588;2023-02-22T01:13:59;94465.56;;;28.23;19.35
1926;BME280;964;42.606;23.588;2023-02-22T01:16:27;94458.16;;;28.38;19.47
1926;BME280;964;42.606;23.588;2023-02-22T01:18:53;94453.63;;;28.59;19.02
1926;BME280;964;42.606;23.588;2023-02-22T01:21:20;94457.50;;;28.29;19.01
1926;BME280;964;42.606;23.588;2023-02-22T01:23:47;94461.22;;;28.55;18.65
1926;BME280;964;42.606;23.588;2023-02-22T01:26:14;94461.31;;;28.22;19.24
1926;BME280;964;42.606;23.588;2023-02-22T01:28:40;94459.47;;;27.71;19.59
1926;BME280;964;42.606;23.588;2023-02-22T01:31:07;94466.41;;;27.72;19.82
1926;BME280;964;42.606;23.588;2023-02-22T01:33:35;94449.06;;;27.94;19.58
1926;BME280;964;42.606;23.588;2023-02-22T01:36:03;94452.41;;;28.21;19.03
1926;BME280;964;42.606;23.588;2023-02-22T01:38:35;94445.97;;;28.10;18.88
1926;BME280;964;42.606;23.588;2023-02-22T01:41:03;94448.69;;;27.53;19.88
1926;BME280;964;42.606;23.588;2023-02-22T01:43:31;94447.31;;;27.40;20.10
1926;BME280;964;42.606;23.588;2023-02-22T01:46:00;94449.66;;;27.23;19.49
1926;BME280;964;42.606;23.588;2023-02-22T01:48:32;94456.34;;;27.13;19.77
1926;BME280;964;42.606;23.588;2023-02-22T01:51:03;94450.16;;;27.54;19.43
1926;BME280;964;42.606;23.588;2023-02-22T01:53:37;94450.00;;;27.58;19.53
1926;BME280;964;42.606;23.588;2023-02-22T01:56:06;94459.44;;;26.88;20.17
1926;BME280;964;42.606;23.588;2023-02-22T01:58:35;94453.91;;;27.24;19.69
1926;BME280;964;42.606;23.588;2023-02-22T02:01:04;94462.13;;;26.97;19.94
1926;BME280;964;42.606;23.588;2023-02-22T02:03:34;94461.31;;;27.14;19.86
1926;BME280;964;42.606;23.588;2023-02-22T02:06:07;94456.56;;;27.42;19.66
1926;BME280;964;42.606;23.588;2023-02-22T02:08:43;94463.88;;;27.27;19.79
1926;BME280;964;42.606;23.588;2023-02-22T02:11:16;94458.97;;;26.62;20.25
1926;BME280;964;42.606;23.588;2023-02-22T02:13:43;94466.34;;;26.70;20.23
1926;BME280;964;42.606;23.588;2023-02-22T02:16:10;94467.41;;;27.09;20.02
1926;BME280;964;42.606;23.588;2023-02-22T02:18:37;94472.38;;;26.74;20.28
1926;BME280;964;42.606;23.588;2023-02-22T02:21:38;94469.38;;;26.91;20.18
1926;BME280;964;42.606;23.588;2023-02-22T02:27:25;94473.91;;;26.75;19.91
1926;BME280;964;42.606;23.588;2023-02-22T02:32:57;94485.38;;;26.34;20.34
1926;BME280;964;42.606;23.588;2023-02-22T02:35:47;94483.19;;;26.02;20.78
1926;BME280;964;42.606;23.588;2023-02-22T02:38:24;94485.69;;;26.36;20.51
1926;BME280;964;42.606;23.588;2023-02-22T02:41:02;94488.84;;;25.76;20.99
1926;BME280;964;42.606;23.588;2023-02-22T02:43:33;94485.31;;;26.07;20.93
1926;BME280;964;42.606;23.588;2023-02-22T02:46:05;94482.66;;;25.76;21.15
1926;BME280;964;42.606;23.588;2023-02-22T02:48:37;94478.75;;;26.53;20.36
1926;BME280;964;42.606;23.588;2023-02-22T02:51:06;94479.75;;;25.52;21.15
1926;BME280;964;42.606;23.588;2023-02-22T02:53:42;94480.41;;;25.74;21.13
1926;BME280;964;42.606;23.588;2023-02-22T02:56:10;94484.66;;;25.75;21.03
1926;BME280;964;42.606;23.588;2023-02-22T02:58:46;94478.75;;;26.71;19.86
1926;BME280;964;42.606;23.588;2023-02-22T03:01:20;94481.09;;;25.26;21.37
1926;BME280;964;42.606;23.588;2023-02-22T03:04:05;94492.56;;;26.01;20.54
1926;BME280;964;42.606;23.588;2023-02-22T03:09:52;94495.19;;;25.43;21.00
1926;BME280;964;42.606;23.588;2023-02-22T03:12:37;94483.50;;;26.13;20.43
1926;BME280;964;42.606;23.588;2023-02-22T03:15:13;94492.19;;;24.54;22.10
1926;BME280;964;42.606;23.588;2023-02-22T03:17:51;94491.47;;;25.89;20.66
1926;BME280;964;42.606;23.588;2023-02-22T03:20:26;94492.41;;;24.25;22.32
1926;BME280;964;42.606;23.588;2023-02-22T03:22:59;94490.88;;;25.94;20.81
1926;BME280;964;42.606;23.588;2023-02-22T03:25:32;94502.13;;;25.13;21.76
1926;BME280;964;42.606;23.588;2023-02-22T03:28:02;94502.22;;;25.31;21.50
1926;BME280;964;42.606;23.588;2023-02-22T03:30:33;94497.63;;;25.80;21.02
1926;BME280;964;42.606;23.588;2023-02-22T03:33:06;94504.13;;;25.00;21.97
1926;BME280;964;42.606;23.588;2023-02-22T03:35:38;94500.56;;;25.33;22.05
1926;BME280;964;42.606;23.588;2023-02-22T03:38:10;94498.69;;;24.56;22.46
1926;BME280;964;42.606;23.588;2023-02-22T03:40:41;94499.72;;;25.76;21.44
1926;BME280;964;42.606;23.588;2023-02-22T03:43:12;94501.72;;;25.85;21.02
1926;BME280;964;42.606;23.588;2023-02-22T03:45:41;94503.28;;;26.04;21.03
1926;BME280;964;42.606;23.588;2023-02-22T03:48:15;94506.63;;;25.37;21.41
1926;BME280;964;42.606;23.588;2023-02-22T03:50:48;94505.69;;;25.62;21.40
1926;BME280;964;42.606;23.588;2023-02-22T03:53:16;94510.75;;;24.55;22.41
1926;BME280;964;42.606;23.588;2023-02-22T03:55:44;94512.69;;;24.55;22.39
1926;BME280;964;42.606;23.588;2023-02-22T03:58:13;94507.66;;;25.31;21.75
1926;BME280;964;42.606;23.588;2023-02-22T04:00:40;94505.75;;;23.94;23.14
1926;BME280;964;42.606;23.588;2023-02-22T04:03:09;94500.72;;;25.30;21.68
1926;BME280;964;42.606;23.588;2023-02-22T04:05:36;94495.00;;;25.59;21.27
1926;BME280;964;42.606;23.588;2023-02-22T04:08:04;94498.56;;;24.81;22.12
1926;BME280;964;42.606;23.588;2023-02-22T04:10:31;94496.94;;;25.58;21.53
1926;BME280;964;42.606;23.588;2023-02-22T04:12:59;94486.56;;;26.15;20.83
1926;BME280;964;42.606;23.588;2023-02-22T04:15:25;94491.72;;;24.89;21.56
1926;BME280;964;42.606;23.588;2023-02-22T04:17:52;94497.78;;;25.46;21.57
1926;BME280;964;42.606;23.588;2023-02-22T04:20:19;94497.09;;;26.04;21.03
1926;BME280;964;42.606;23.588;2023-02-22T04:22:50;94499.53;;;25.40;21.67
1926;BME280;964;42.606;23.588;2023-02-22T04:25:19;94488.56;;;25.13;21.79
1926;BME280;964;42.606;23.588;2023-02-22T04:27:47;94498.59;;;25.03;22.00
1926;BME280;964;42.606;23.588;2023-02-22T04:30:16;94502.03;;;24.60;22.35
1926;BME280;964;42.606;23.588;2023-02-22T04:32:43;94510.78;;;25.51;21.61
1926;BME280;964;42.606;23.588;2023-02-22T04:35:09;94499.31;;;25.25;22.00
1926;BME280;964;42.606;23.588;2023-02-22T04:37:36;94496.09;;;25.79;21.53
1926;BME280;964;42.606;23.588;2023-02-22T04:40:05;94498.25;;;25.84;21.18
1926;BME280;964;42.606;23.588;2023-02-22T04:42:33;94505.63;;;25.22;21.63
1926;BME280;964;42.606;23.588;2023-02-22T04:45:01;94508.41;;;25.62;21.34
1926;BME280;964;42.606;23.588;2023-02-22T04:47:28;94502.97;;;25.53;21.39
1926;BME280;964;42.606;23.588;2023-02-22T04:49:54;94509.56;;;25.00;22.18
1926;BME280;964;42.606;23.588;2023-02-22T04:52:21;94503.19;;;24.37;23.02
1926;BME280;964;42.606;23.588;2023-02-22T04:54:48;94505.78;;;25.19;21.96
1926;BME280;964;42.606;23.588;2023-02-22T04:57:15;94501.75;;;25.02;22.15
1926;BME280;964;42.606;23.588;2023-02-22T04:59:43;94500.44;;;25.37;21.63
1926;BME280;964;42.606;23.588;2023-02-22T05:02:09;94517.38;;;25.50;21.46
1926;BME280;964;42.606;23.588;2023-02-22T05:04:37;94508.19;;;25.78;21.09
1926;BME280;964;42.606;23.588;2023-02-22T05:07:04;94508.09;;;25.29;21.42
1926;BME280;964;42.606;23.588;2023-02-22T05:09:30;94502.69;;;25.08;21.55
1926;BME280;964;42.606;23.588;2023-02-22T05:11:57;94512.25;;;25.21;21.77
1926;BME280;964;42.606;23.588;2023-02-22T05:14:24;94519.13;;;25.35;21.58
1926;BME280;964;42.606;23.588;2023-02-22T05:16:53;94512.59;;;25.02;21.56
1926;BME280;964;42.606;23.588;2023-02-22T05:19:19;94514.22;;;25.21;21.38
1926;BME280;964;42.606;23.588;2023-02-22T05:21:46;94520.03;;;24.20;22.79
1926;BME280;964;42.606;23.588;2023-02-22T05:24:13;94523.34;;;24.71;22.16
1926;BME280;964;42.606;23.588;2023-02-22T05:26:41;94517.13;;;25.26;21.66
1926;BME280;964;42.606;23.588;2023-02-22T05:29:08;94526.09;;;24.93;21.92
1926;BME280;964;42.606;23.588;2023-02-22T05:31:34;94528.38;;;24.81;22.15
1926;BME280;964;42.606;23.588;2023-02-22T05:34:03;94525.66;;;24.81;22.07
1926;BME280;964;42.606;23.588;2023-02-22T05:36:29;94538.69;;;25.30;22.07
1926;BME280;964;42.606;23.588;2023-02-22T05:38:56;94533.66;;;25.50;21.54
1926;BME280;964;42.606;23.588;2023-02-22T05:41:22;94528.38;;;25.77;21.64
1926;BME280;964;42.606;23.588;2023-02-22T05:43:49;94531.28;;;27.23;20.15
1926;BME280;964;42.606;23.588;2023-02-22T05:46:16;94518.88;;;28.62;19.18
1926;BME280;964;42.606;23.588;2023-02-22T05:48:42;94520.31;;;29.26;19.28
1926;BME280;964;42.606;23.588;2023-02-22T05:51:10;94516.66;;;30.22;18.23
1926;BME280;964;42.606;23.588;2023-02-22T05:53:37;94504.34;;;31.44;17.06
1926;BME280;964;42.606;23.588;2023-02-22T05:56:05;94511.91;;;30.78;17.33
1926;BME280;964;42.606;23.588;2023-02-22T05:58:31;94509.97;;;31.92;17.14
1926;BME280;964;42.606;23.588;2023-02-22T06:00:58;94505.13;;;33.26;15.95
1926;BME280;964;42.606;23.588;2023-02-22T06:03:25;94490.09;;;34.21;15.51
1926;BME280;964;42.606;23.588;2023-02-22T06:05:51;94490.16;;;33.88;15.65
1926;BME280;964;42.606;23.588;2023-02-22T06:08:19;94488.72;;;34.61;15.48
1926;BME280;964;42.606;23.588;2023-02-22T06:10:46;94487.25;;;35.83;14.88
1926;BME280;964;42.606;23.588;2023-02-22T06:13:13;94493.44;;;37.23;13.87
1926;BME280;964;42.606;23.588;2023-02-22T06:15:39;94481.84;;;37.44;14.00
1926;BME280;964;42.606;23.588;2023-02-22T06:18:06;94481.06;;;37.62;13.65
1926;BME280;964;42.606;23.588;2023-02-22T06:20:33;94477.16;;;38.68;13.37
1926;BME280;964;42.606;23.588;2023-02-22T06:23:00;94476.50;;;39.01;12.91
1926;BME280;964;42.606;23.588;2023-02-22T06:25:29;94483.97;;;38.80;13.01
1926;BME280;964;42.606;23.588;2023-02-22T06:27:56;94477.28;;;39.77;13.06
1926;BME280;964;42.606;23.588;2023-02-22T06:30:24;94472.28;;;41.55;12.32
1926;BME280;964;42.606;23.588;2023-02-22T06:32:51;94462.97;;;42.66;11.90
1926;BME280;964;42.606;23.588;2023-02-22T06:35:18;94476.44;;;43.32;11.05
1926;BME280;964;42.606;23.588;2023-02-22T06:37:45;94464.38;;;43.30;11.33
1926;BME280;964;42.606;23.588;2023-02-22T06:40:13;94477.91;;;41.85;11.73
1926;BME280;964;42.606;23.588;2023-02-22T06:42:42;94470.41;;;43.51;11.34
1926;BME280;964;42.606;23.588;2023-02-22T06:45:09;94469.88;;;43.13;11.55
1926;BME280;964;42.606;23.588;2023-02-22T06:47:39;94473.28;;;43.68;11.62
1926;BME280;964;42.606;23.588;2023-02-22T06:50:16;94474.34;;;43.48;11.25
1926;BME280;964;42.606;23.588;2023-02-22T06:52:43;94472.75;;;43.87;11.06
1926;BME280;964;42.606;23.588;2023-02-22T06:55:15;94479.28;;;44.31;10.66
1926;BME280;964;42.606;23.588;2023-02-22T06:57:44;94488.84;;;44.04;10.56
1926;BME280;964;42.606;23.588;2023-02-22T07:00:12;94480.28;;;44.02;10.57
1926;BME280;964;42.606;23.588;2023-02-22T07:02:41;94480.28;;;44.43;10.09
1926;BME280;964;42.606;23.588;2023-02-22T07:05:09;94484.75;;;44.05;10.28
1926;BME280;964;42.606;23.588;2023-02-22T07:07:36;94484.91;;;44.83;10.27
1926;BME280;964;42.606;23.588;2023-02-22T07:10:04;94477.16;;;45.52;10.00
1926;BME280;964;42.606;23.588;2023-02-22T07:12:32;94478.25;;;45.66;9.56
1926;BME280;964;42.606;23.588;2023-02-22T07:15:00;94475.69;;;46.43;9.98
1926;BME280;964;42.606;23.588;2023-02-22T07:17:27;94477.19;;;46.54;9.18
1926;BME280;964;42.606;23.588;2023-02-22T07:19:54;94467.28;;;46.43;9.85
1926;BME280;964;42.606;23.588;2023-02-22T07:22:20;94473.84;;;46.09;9.50
1926;BME280;964;42.606;23.588;2023-02-22T07:28:37;94490.66;;;39.86;11.47
1926;BME280;964;42.606;23.588;2023-02-22T07:31:03;94489.03;;;42.16;10.46
1926;BME280;964;42.606;23.588;2023-02-22T07:33:30;94478.94;;;42.73;10.33
1926;BME280;964;42.606;23.588;2023-02-22T07:35:57;94484.31;;;42.71;10.33
1926;BME280;964;42.606;23.588;2023-02-22T07:38:23;94485.69;;;42.17;10.63
1926;BME280;964;42.606;23.588;2023-02-22T07:40:50;94485.47;;;42.45;10.53
1926;BME280;964;42.606;23.588;2023-02-22T07:43:18;94478.97;;;42.66;10.71
1926;BME280;964;42.606;23.588;2023-02-22T07:45:47;94467.13;;;44.36;9.84
1926;BME280;964;42.606;23.588;2023-02-22T07:48:16;94477.31;;;43.75;10.28
1926;BME280;964;42.606;23.588;2023-02-22T07:50:43;94473.47;;;45.06;9.81
1926;BME280;964;42.606;23.588;2023-02-22T07:53:12;94470.00;;;44.46;9.88
1926;BME280;964;42.606;23.588;2023-02-22T07:55:39;94465.50;;;44.85;9.84
1926;BME280;964;42.606;23.588;2023-02-22T07:58:07;94471.69;;;45.27;9.61
1926;BME280;964;42.606;23.588;2023-02-22T08:00:35;94470.03;;;44.80;10.09
1926;BME280;964;42.606;23.588;2023-02-22T08:03:06;94462.84;;;45.84;9.48
1926;BME280;964;42.606;23.588;2023-02-22T08:05:35;94465.78;;;45.23;9.60
1926;BME280;964;42.606;23.588;2023-02-22T08:08:02;94469.75;;;43.92;10.48
1926;BME280;964;42.606;23.588;2023-02-22T08:10:30;94478.25;;;44.44;10.32
1926;BME280;964;42.606;23.588;2023-02-22T08:12:58;94481.97;;;43.47;10.67
1926;BME280;964;42.606;23.588;2023-02-22T08:15:30;94471.59;;;44.74;10.34
1926;BME280;964;42.606;23.588;2023-02-22T08:17:58;94468.28;;;45.29;9.67
1926;BME280;964;42.606;23.588;2023-02-22T08:20:27;94471.94;;;45.22;9.91
1926;BME280;964;42.606;23.588;2023-02-22T08:22:55;94472.56;;;44.52;10.22
1926;BME280;964;42.606;23.588;2023-02-22T08:25:24;94473.19;;;45.28;10.36
1926;BME280;964;42.606;23.588;2023-02-22T08:27:52;94463.16;;;45.52;9.96
1926;BME280;964;42.606;23.588;2023-02-22T08:30:23;94465.44;;;43.10;10.40
1926;BME280;964;42.606;23.588;2023-02-22T08:32:50;94460.97;;;44.55;10.57
1926;BME280;964;42.606;23.588;2023-02-22T08:35:18;94458.00;;;44.87;10.01
1926;BME280;964;42.606;23.588;2023-02-22T08:37:48;94455.00;;;45.20;10.09
1926;BME280;964;42.606;23.588;2023-02-22T08:40:18;94449.47;;;45.93;9.78
1926;BME280;964;42.606;23.588;2023-02-22T08:42:45;94453.84;;;45.23;9.81
1926;BME280;964;42.606;23.588;2023-02-22T08:45:12;94453.53;;;45.72;10.09
1926;BME280;964;42.606;23.588;2023-02-22T08:47:40;94446.03;;;46.78;10.04
1926;BME280;964;42.606;23.588;2023-02-22T08:50:08;94448.78;;;47.46;9.66
1926;BME280;964;42.606;23.588;2023-02-22T08:52:34;94445.16;;;47.05;9.31
1926;BME280;964;42.606;23.588;2023-02-22T08:55:03;94439.03;;;47.78;9.78
1926;BME280;964;42.606;23.588;2023-02-22T08:57:30;94437.59;;;47.17;9.48
1926;BME280;964;42.606;23.588;2023-02-22T08:59:56;94435.84;;;47.71;9.90
1926;BME280;964;42.606;23.588;2023-02-22T09:02:23;94435.25;;;47.04;10.20
1926;BME280;964;42.606;23.588;2023-02-22T09:04:50;94439.81;;;47.28;9.24
1926;BME280;964;42.606;23.588;2023-02-22T09:07:17;94437.19;;;47.11;9.90
1926;BME280;964;42.606;23.588;2023-02-22T09:09:44;94441.91;;;46.41;10.48
1926;BME280;964;42.606;23.588;2023-02-22T09:12:12;94438.53;;;46.81;10.28
1926;BME280;964;42.606;23.588;2023-02-22T09:14:39;94447.41;;;46.03;9.99
1926;BME280;964;42.606;23.588;2023-02-22T09:17:07;94441.47;;;45.26;11.08
1926;BME280;964;42.606;23.588;2023-02-22T09:19:34;94433.22;;;45.81;10.51
1926;BME280;964;42.606;23.588;2023-02-22T09:22:00;94444.19;;;45.70;10.59
1926;BME280;964;42.606;23.588;2023-02-22T09:24:27;94429.53;;;46.63;10.57
1926;BME280;964;42.606;23.588;2023-02-22T09:26:54;94437.16;;;45.15;10.92
1926;BME280;964;42.606;23.588;2023-02-22T09:29:23;94431.00;;;45.00;10.48
1926;BME280;964;42.606;23.588;2023-02-22T09:31:53;94428.28;;;46.09;10.58
1926;BME280;964;42.606;23.588;2023-02-22T09:34:22;94430.53;;;44.42;10.99
1926;BME280;964;42.606;23.588;2023-02-22T09:36:54;94435.31;;;44.83;10.71
1926;BME280;964;42.606;23.588;2023-02-22T09:39:21;94436.97;;;44.69;10.96
1926;BME280;964;42.606;23.588;2023-02-22T09:41:52;94438.31;;;43.03;12.09
1926;BME280;964;42.606;23.588;2023-02-22T09:44:28;94432.66;;;43.50;11.21
1926;BME280;964;42.606;23.588;2023-02-22T09:47:00;94435.59;;;43.77;11.28
1926;BME280;964;42.606;23.588;2023-02-22T09:49:31;94425.28;;;44.29;11.20
1926;BME280;964;42.606;23.588;2023-02-22T09:52:06;94429.47;;;43.54;11.38
1926;BME280;964;42.606;23.588;2023-02-22T09:54:37;94416.53;;;44.08;11.33
1926;BME280;964;42.606;23.588;2023-02-22T09:57:08;94420.03;;;44.33;10.94
1926;BME280;964;42.606;23.588;2023-02-22T09:59:41;94420.16;;;44.01;11.09
1926;BME280;964;42.606;23.588;2023-02-22T10:02:20;94408.25;;;44.34;10.91
1926;BME280;964;42.606;23.588;2023-02-22T10:04:53;94409.91;;;43.21;10.97
1926;BME280;964;42.606;23.588;2023-02-22T10:07:28;94402.91;;;44.46;10.80
1926;BME280;964;42.606;23.588;2023-02-22T10:09:56;94389.78;;;44.22;11.30
1926;BME280;964;42.606;23.588;2023-02-22T10:12:37;94395.00;;;44.01;11.24
1926;BME280;964;42.606;23.588;2023-02-22T10:15:51;94395.69;;;44.60;10.51
1926;BME280;964;42.606;23.588;2023-02-22T10:18:42;94396.03;;;44.91;10.53
1926;BME280;964;42.606;23.588;2023-02-22T10:21:18;94386.19;;;43.13;11.29
1926;BME280;964;42.606;23.588;2023-02-22T10:23:54;94387.28;;;43.67;11.57
1926;BME280;964;42.606;23.588;2023-02-22T10:26:25;94381.16;;;42.71;12.15
1926;BME280;964;42.606;23.588;2023-02-22T10:28:58;94364.41;;;43.85;11.21
1926;BME280;964;42.606;23.588;2023-02-22T10:31:30;94356.72;;;43.93;10.99
1926;BME280;964;42.606;23.588;2023-02-22T10:34:01;94361.88;;;44.14;10.93
1926;BME280;964;42.606;23.588;2023-02-22T10:36:28;94357.19;;;44.68;10.42
1926;BME280;964;42.606;23.588;2023-02-22T10:38:58;94348.84;;;45.31;10.26
1926;BME280;964;42.606;23.588;2023-02-22T10:41:30;94351.94;;;44.38;10.89
1926;BME280;964;42.606;23.588;2023-02-22T10:43:57;94342.47;;;44.16;10.94
1926;BME280;964;42.606;23.588;2023-02-22T10:46:26;94337.81;;;44.36;10.82
1926;BME280;964;42.606;23.588;2023-02-22T10:48:56;94337.63;;;44.17;10.98
1926;BME280;964;42.606;23.588;2023-02-22T10:51:27;94343.66;;;42.65;11.11
1926;BME280;964;42.606;23.588;2023-02-22T10:53:58;94326.06;;;43.44;10.57
1926;BME280;964;42.606;23.588;2023-02-22T10:56:33;94336.66;;;43.21;10.87
1926;BME280;964;42.606;23.588;2023-02-22T10:59:03;94320.59;;;44.74;11.02
1926;BME280;964;42.606;23.588;2023-02-22T11:01:35;94320.81;;;43.48;11.07
1926;BME280;964;42.606;23.588;2023-02-22T11:04:09;94315.91;;;43.73;10.85
1926;BME280;964;42.606;23.588;2023-02-22T11:06:37;94316.03;;;41.96;11.25
1926;BME280;964;42.606;23.588;2023-02-22T11:09:08;94319.69;;;42.94;11.44
1926;BME280;964;42.606;23.588;2023-02-22T11:11:36;94311.19;;;43.41;11.50
1926;BME280;964;42.606;23.588;2023-02-22T11:14:04;94312.31;;;42.81;11.69
1926;BME280;964;42.606;23.588;2023-02-22T11:16:36;94298.31;;;43.46;11.02
1926;BME280;964;42.606;23.588;2023-02-22T11:19:15;94317.00;;;41.16;11.35
1926;BME280;964;42.606;23.588;2023-02-22T11:21:45;94308.94;;;42.90;11.55
1926;BME280;964;42.606;23.588;2023-02-22T11:24:13;94294.56;;;43.68;10.70
1926;BME280;964;42.606;23.588;2023-02-22T11:26:42;94297.44;;;41.99;10.63
1926;BME280;964;42.606;23.588;2023-02-22T11:29:14;94299.50;;;41.91;11.19
1926;BME280;964;42.606;23.588;2023-02-22T11:31:45;94306.06;;;41.63;11.40
1926;BME280;964;42.606;23.588;2023-02-22T11:34:34;94290.06;;;43.31;10.27
1926;BME280;964;42.606;23.588;2023-02-22T11:37:16;94278.72;;;43.71;10.41
1926;BME280;964;42.606;23.588;2023-02-22T11:39:43;94277.50;;;44.16;10.20
1926;BME280;964;42.606;23.588;2023-02-22T11:42:21;94276.53;;;44.48;10.13
1926;BME280;964;42.606;23.588;2023-02-22T11:44:52;94278.47;;;44.72;9.79
1926;BME280;964;42.606;23.588;2023-02-22T11:47:33;94275.88;;;43.95;10.23
1926;BME280;964;42.606;23.588;2023-02-22T11:50:01;94266.72;;;45.10;9.83
1926;BME280;964;42.606;23.588;2023-02-22T11:52:41;94259.75;;;45.47;9.53
1926;BME280;964;42.606;23.588;2023-02-22T11:55:16;94258.59;;;45.04;9.46
1926;BME280;964;42.606;23.588;2023-02-22T11:57:57;94254.94;;;45.76;9.49
1926;BME280;964;42.606;23.588;2023-02-22T12:00:33;94252.56;;;45.54;9.69
1926;BME280;964;42.606;23.588;2023-02-22T12:03:26;94262.41;;;43.84;9.73
1926;BME280;964;42.606;23.588;2023-02-22T12:06:07;94259.34;;;44.51;9.81
1926;BME280;964;42.606;23.588;2023-02-22T12:08:47;94250.03;;;44.66;9.62
1926;BME280;964;42.606;23.588;2023-02-22T12:11:22;94242.13;;;45.73;9.01
1926;BME280;964;42.606;23.588;2023-02-22T12:14:00;94245.66;;;45.18;9.49
1926;BME280;964;42.606;23.588;2023-02-22T12:16:36;94244.03;;;44.79;9.47
1926;BME280;964;42.606;23.588;2023-02-22T12:19:14;94237.88;;;44.80;9.83
1926;BME280;964;42.606;23.588;2023-02-22T12:21:51;94233.88;;;45.75;10.25
1926;BME280;964;42.606;23.588;2023-02-22T12:24:21;94226.94;;;46.74;8.95
1926;BME280;964;42.606;23.588;2023-02-22T12:26:50;94219.81;;;46.93;8.56
1926;BME280;964;42.606;23.588;2023-02-22T12:29:27;94220.91;;;46.68;9.53
1926;BME280;964;42.606;23.588;2023-02-22T12:31:59;94226.19;;;45.95;9.78
1926;BME280;964;42.606;23.588;2023-02-22T12:34:33;94221.31;;;46.15;9.51
1926;BME280;964;42.606;23.588;2023-02-22T12:37:09;94218.28;;;45.26;9.15
1926;BME280;964;42.606;23.588;2023-02-22T12:39:45;94229.91;;;44.50;10.13
1926;BME280;964;42.606;23.588;2023-02-22T12:42:17;94220.81;;;44.86;9.87
1926;BME280;964;42.606;23.588;2023-02-22T12:44:51;94209.03;;;47.41;9.01
1926;BME280;964;42.606;23.588;2023-02-22T12:47:24;94196.91;;;49.51;8.26
1926;BME280;964;42.606;23.588;2023-02-22T12:49:58;94208.44;;;46.31;9.51
1926;BME280;964;42.606;23.588;2023-02-22T12:52:39;94203.50;;;45.81;9.52
1926;BME280;964;42.606;23.588;2023-02-22T12:55:11;94206.13;;;45.99;9.34
1926;BME280;964;42.606;23.588;2023-02-22T12:57:46;94213.25;;;44.69;9.79
1926;BME280;964;42.606;23.588;2023-02-22T13:00:16;94207.97;;;43.17;10.48
1926;BME280;964;42.606;23.588;2023-02-22T13:02:55;94217.78;;;44.38;10.44
1926;BME280;964;42.606;23.588;2023-02-22T13:05:22;94209.28;;;44.02;10.57
1926;BME280;964;42.606;23.588;2023-02-22T13:08:00;94214.69;;;44.97;10.05
1926;BME280;964;42.606;23.588;2023-02-22T13:10:36;94208.06;;;44.39;10.51
1926;BME280;964;42.606;23.588;2023-02-22T13:13:13;94202.66;;;45.14;10.05
1926;BME280;964;42.606;23.588;2023-02-22T13:15:51;94201.38;;;45.44;10.00
1926;BME280;964;42.606;23.588;2023-02-22T13:18:28;94194.50;;;45.54;9.86
1926;BME280;964;42.606;23.588;2023-02-22T13:21:00;94189.31;;;46.18;10.06
1926;BME280;964;42.606;23.588;2023-02-22T13:23:38;94189.59;;;46.03;9.53
1926;BME280;964;42.606;23.588;2023-02-22T13:26:13;94192.69;;;46.07;9.96
1926;BME280;964;42.606;23.588;2023-02-22T13:28:47;94173.50;;;46.72;9.57
1926;BME280;964;42.606;23.588;2023-02-22T13:31:24;94180.25;;;46.89;10.10
1926;BME280;964;42.606;23.588;2023-02-22T13:34:09;94186.38;;;46.16;9.92
1926;BME280;964;42.606;23.588;2023-02-22T13:36:52;94189.69;;;44.36;10.25
1926;BME280;964;42.606;23.588;2023-02-22T13:39:45;94192.66;;;42.19;11.33
1926;BME280;964;42.606;23.588;2023-02-22T13:42:39;94196.41;;;43.20;10.98
1926;BME280;964;42.606;23.588;2023-02-22T13:45:40;94197.31;;;43.40;10.67
1926;BME280;964;42.606;23.588;2023-02-22T13:51:06;94186.03;;;44.43;10.18
1926;BME280;964;42.606;23.588;2023-02-22T13:53:40;94193.69;;;42.31;10.63
1926;BME280;964;42.606;23.588;2023-02-22T13:56:26;94186.09;;;43.47;10.56
1926;BME280;964;42.606;23.588;2023-02-22T13:58:57;94189.28;;;42.52;11.40